createdAt,value
2022-12-18T00:00:34.818Z,102965.34
2022-12-18T00:03:04.173Z,102961.88
2022-12-18T00:05:33.322Z,102959.31
2022-12-18T00:08:02.000Z,102955.78
2022-12-18T00:10:33.416Z,102945.41
2022-12-18T00:13:05.283Z,102949.91
2022-12-18T00:15:41.258Z,102951.34
2022-12-18T00:18:10.039Z,102952.41
2022-12-18T00:20:40.431Z,102952.88
2022-12-18T00:23:10.255Z,102953.91
2022-12-18T00:25:39.961Z,102953.16
2022-12-18T00:28:08.977Z,102948.56
2022-12-18T00:30:39.202Z,102953.81
2022-12-18T00:33:09.571Z,102954.47
2022-12-18T00:35:39.457Z,102946.78
2022-12-18T00:38:09.455Z,102947.50
2022-12-18T00:40:38.749Z,102953.16
2022-12-18T00:43:06.569Z,102952.66
2022-12-18T00:45:41.712Z,102960.91
2022-12-18T00:48:10.388Z,102959.25
2022-12-18T00:50:39.308Z,102951.41
2022-12-18T00:53:08.374Z,102958.13
2022-12-18T00:55:39.673Z,102951.69
2022-12-18T00:58:08.261Z,102947.38
2022-12-18T01:00:39.121Z,102940.66
2022-12-18T01:03:08.923Z,102935.88
2022-12-18T01:05:41.623Z,102938.31
2022-12-18T01:08:10.418Z,102922.22
2022-12-18T01:10:42.912Z,102943.97
2022-12-18T01:13:11.443Z,102945.75
2022-12-18T01:15:42.188Z,102953.75
2022-12-18T01:18:11.198Z,102949.78
2022-12-18T01:20:41.247Z,102948.09
2022-12-18T01:23:09.816Z,102941.53
2022-12-18T01:25:39.338Z,102940.75
2022-12-18T01:28:08.030Z,102935.78
2022-12-18T01:30:38.615Z,102954.91
2022-12-18T01:33:08.998Z,102950.44
2022-12-18T01:35:45.204Z,102941.47
2022-12-18T01:38:13.805Z,102945.44
2022-12-18T01:40:43.102Z,102949.88
2022-12-18T01:43:12.424Z,102948.59
2022-12-18T01:45:41.422Z,102955.81
2022-12-18T01:48:12.853Z,102954.28
2022-12-18T01:50:44.837Z,102960.00
2022-12-18T01:53:17.788Z,102967.41
2022-12-18T01:55:52.140Z,102963.28
2022-12-18T01:58:22.109Z,102971.59
2022-12-18T02:00:50.553Z,102988.59
2022-12-18T02:03:20.989Z,102995.06
2022-12-18T02:06:02.639Z,102996.41
2022-12-18T02:08:41.323Z,102998.53
2022-12-18T02:11:20.797Z,103007.34
2022-12-18T02:13:59.886Z,103004.69
2022-12-18T02:16:37.205Z,103004.88
2022-12-18T02:19:30.156Z,103015.09
2022-12-18T02:22:09.364Z,103014.41
2022-12-18T02:24:46.773Z,103010.94
2022-12-18T02:27:17.636Z,103007.78
2022-12-18T02:29:58.026Z,103008.97
2022-12-18T02:32:31.260Z,103000.91
2022-12-18T02:35:02.183Z,102997.53
2022-12-18T02:37:36.403Z,102984.34
2022-12-18T02:40:07.695Z,102974.72
2022-12-18T02:42:39.955Z,102963.88
2022-12-18T02:45:09.603Z,102954.22
2022-12-18T02:47:42.390Z,102947.69
2022-12-18T02:50:33.214Z,102943.00
2022-12-18T02:53:17.915Z,102945.91
2022-12-18T02:56:01.804Z,102950.59
2022-12-18T02:58:44.929Z,102947.72
2022-12-18T03:01:21.839Z,102937.97
2022-12-18T03:03:58.776Z,102927.38
2022-12-18T03:06:33.397Z,102935.97
2022-12-18T03:09:08.350Z,102932.72
2022-12-18T03:11:59.691Z,102933.63
2022-12-18T03:14:36.453Z,102932.91
2022-12-18T03:17:09.881Z,102928.38
2022-12-18T03:19:45.255Z,102925.91
2022-12-18T03:22:15.919Z,102927.34
2022-12-18T03:24:45.208Z,102928.47
2022-12-18T03:27:19.938Z,102922.94
2022-12-18T03:29:56.102Z,102926.34
2022-12-18T03:32:32.431Z,102910.78
2022-12-18T03:35:07.364Z,102909.47
2022-12-18T03:37:36.677Z,102906.44
2022-12-18T03:40:09.174Z,102905.19
2022-12-18T03:42:49.601Z,102899.78
2022-12-18T03:45:29.334Z,102896.72
2022-12-18T03:48:06.629Z,102897.53
2022-12-18T03:50:47.941Z,102894.25
2022-12-18T03:53:33.212Z,102894.34
2022-12-18T03:56:05.009Z,102886.47
2022-12-18T03:58:39.122Z,102882.47
2022-12-18T04:01:12.930Z,102883.94
2022-12-18T04:03:45.833Z,102880.03
2022-12-18T04:06:17.506Z,102884.41
2022-12-18T04:08:47.431Z,102888.94
2022-12-18T04:11:17.861Z,102892.47
2022-12-18T04:13:46.412Z,102881.34
2022-12-18T04:16:16.488Z,102876.00
2022-12-18T04:18:45.840Z,102877.47
2022-12-18T04:21:15.301Z,102870.19
2022-12-18T04:23:44.130Z,102871.50
2022-12-18T04:26:12.818Z,102854.25
2022-12-18T04:28:42.218Z,102857.47
2022-12-18T04:31:12.276Z,102855.94
2022-12-18T04:33:42.872Z,102859.53
2022-12-18T04:36:13.607Z,102871.22
2022-12-18T04:38:44.239Z,102876.81
2022-12-18T04:41:13.322Z,102870.53
2022-12-18T04:43:42.244Z,102877.28
2022-12-18T04:46:11.888Z,102876.38
2022-12-18T04:48:42.477Z,102886.84
2022-12-18T04:51:11.277Z,102892.16
2022-12-18T04:53:45.161Z,102897.69
2022-12-18T04:56:16.326Z,102913.34
2022-12-18T04:58:47.192Z,102919.53
2022-12-18T05:01:19.194Z,102914.53
2022-12-18T05:03:49.579Z,102918.06
2022-12-18T05:06:18.314Z,102916.91
2022-12-18T05:08:47.196Z,102914.97
2022-12-18T05:11:17.534Z,102924.81
2022-12-18T05:13:46.770Z,102926.56
2022-12-18T05:16:16.616Z,102928.16
2022-12-18T05:18:45.425Z,102940.44
2022-12-18T05:21:17.250Z,102945.22
2022-12-18T05:23:45.666Z,102938.88
2022-12-18T05:26:20.510Z,102941.94
2022-12-18T05:28:49.205Z,102934.88
2022-12-18T05:31:20.457Z,102937.38
2022-12-18T05:33:53.487Z,102941.56
2022-12-18T05:36:23.909Z,102938.44
2022-12-18T05:39:01.193Z,102939.09
2022-12-18T05:41:31.820Z,102924.81
2022-12-18T05:44:01.361Z,102925.03
2022-12-18T05:46:31.181Z,102933.66
2022-12-18T05:49:02.660Z,102925.19
2022-12-18T05:51:32.810Z,102917.84
2022-12-18T05:54:01.814Z,102914.94
2022-12-18T05:56:30.712Z,102917.38
2022-12-18T05:58:59.446Z,102912.94
2022-12-18T06:01:29.247Z,102908.97
2022-12-18T06:04:00.937Z,102901.06
2022-12-18T06:06:32.096Z,102898.75
2022-12-18T06:09:07.082Z,102904.03
2022-12-18T06:11:38.927Z,102894.75
2022-12-18T06:14:10.774Z,102905.34
2022-12-18T06:16:39.468Z,102912.53
2022-12-18T06:19:10.804Z,102907.34
2022-12-18T06:21:43.516Z,102911.00
2022-12-18T06:24:14.715Z,102901.50
2022-12-18T06:26:43.554Z,102892.09
2022-12-18T06:29:15.021Z,102893.75
2022-12-18T06:31:46.655Z,102881.84
2022-12-18T06:34:17.235Z,102887.41
2022-12-18T06:36:47.579Z,102880.16
2022-12-18T06:39:16.222Z,102878.53
2022-12-18T06:41:46.281Z,102875.44
2022-12-18T06:44:17.484Z,102868.81
2022-12-18T06:46:47.599Z,102857.84
2022-12-18T06:49:18.635Z,102848.44
2022-12-18T06:51:49.687Z,102845.31
2022-12-18T06:54:18.262Z,102845.59
2022-12-18T06:56:48.557Z,102838.19
2022-12-18T06:59:18.574Z,102840.81
2022-12-18T07:01:47.599Z,102832.38
2022-12-18T07:04:19.367Z,102840.97
2022-12-18T07:06:49.684Z,102829.06
2022-12-18T07:09:18.102Z,102822.94
2022-12-18T07:11:46.551Z,102821.97
2022-12-18T07:14:15.769Z,102823.41
2022-12-18T07:16:47.605Z,102824.47
2022-12-18T07:19:19.872Z,102828.31
2022-12-18T07:21:50.693Z,102825.31
2022-12-18T07:24:21.222Z,102813.91
2022-12-18T07:26:51.238Z,102815.69
2022-12-18T07:29:19.836Z,102816.69
2022-12-18T07:31:49.633Z,102813.81
2022-12-18T07:34:20.390Z,102822.66
2022-12-18T07:36:52.950Z,102818.25
2022-12-18T07:39:21.985Z,102805.22
2022-12-18T07:42:10.713Z,102813.53
2022-12-18T07:44:39.906Z,102799.41
2022-12-18T07:47:11.932Z,102786.38
2022-12-18T07:49:43.154Z,102782.59
2022-12-18T07:52:13.364Z,102790.13
2022-12-18T07:54:42.814Z,102775.59
2022-12-18T07:57:41.382Z,102780.59
2022-12-18T08:00:03.281Z,102767.09
2022-12-18T08:02:34.605Z,102760.00
2022-12-18T08:05:06.430Z,102766.06
2022-12-18T08:07:37.403Z,102763.63
2022-12-18T08:10:10.884Z,102770.47
2022-12-18T08:12:39.412Z,102767.50
2022-12-18T08:15:10.734Z,102772.84
2022-12-18T08:17:39.939Z,102776.69
2022-12-18T08:20:12.334Z,102780.16
2022-12-18T08:22:46.887Z,102772.38
2022-12-18T08:25:15.362Z,102791.06
2022-12-18T08:27:44.893Z,102789.84
2022-12-18T08:30:15.297Z,102803.69
2022-12-18T08:32:45.589Z,102792.97
2022-12-18T08:35:18.632Z,102795.13
2022-12-18T08:37:49.571Z,102799.13
2022-12-18T08:40:19.709Z,102796.47
2022-12-18T08:43:06.233Z,102788.66
2022-12-18T08:45:36.139Z,102791.31
2022-12-18T08:48:06.157Z,102789.97
2022-12-18T08:50:35.082Z,102798.94
2022-12-18T08:53:06.938Z,102805.41
2022-12-18T08:55:35.941Z,102813.19
2022-12-18T08:58:04.928Z,102805.22
2022-12-18T09:00:43.512Z,102791.50
2022-12-18T09:03:16.037Z,102778.53
2022-12-18T09:05:46.922Z,102781.31
2022-12-18T09:11:47.341Z,102784.88
2022-12-18T09:14:19.136Z,102778.00
2022-12-18T09:16:51.097Z,102770.16
2022-12-18T09:19:25.660Z,102765.03
2022-12-18T09:22:02.120Z,102757.34
2022-12-18T09:24:34.818Z,102769.59
2022-12-18T09:27:05.287Z,102760.72
2022-12-18T09:29:35.164Z,102758.25
2022-12-18T09:32:05.093Z,102757.91
2022-12-18T09:34:37.198Z,102759.00
2022-12-18T09:37:06.117Z,102754.00
2022-12-18T09:39:39.025Z,102758.00
2022-12-18T09:42:23.341Z,102750.53
2022-12-18T09:44:56.817Z,102746.41
2022-12-18T09:47:37.352Z,102743.13
2022-12-18T09:50:24.368Z,102747.97
2022-12-18T09:52:57.448Z,102738.19
2022-12-18T09:55:37.160Z,102737.56
2022-12-18T09:58:18.963Z,102719.13
2022-12-18T10:00:49.973Z,102723.28
2022-12-18T10:03:18.889Z,102733.50
2022-12-18T10:06:02.912Z,102727.03
2022-12-18T10:08:45.321Z,102724.50
2022-12-18T10:11:34.341Z,102733.78
2022-12-18T10:14:12.200Z,102722.72
2022-12-18T10:16:59.357Z,102711.56
2022-12-18T10:19:42.660Z,102701.97
2022-12-18T10:22:30.748Z,102713.06
2022-12-18T10:25:12.923Z,102714.03
2022-12-18T10:27:43.828Z,102723.78
2022-12-18T10:30:17.439Z,102715.84
2022-12-18T10:32:46.506Z,102704.22
2022-12-18T10:35:23.796Z,102687.31
2022-12-18T10:38:17.674Z,102691.81
2022-12-18T10:40:59.864Z,102700.56
2022-12-18T10:43:32.639Z,102688.63
2022-12-18T10:46:25.671Z,102697.31
2022-12-18T10:48:58.115Z,102682.59
2022-12-18T10:51:31.629Z,102681.59
2022-12-18T10:54:17.057Z,102672.28
2022-12-18T10:56:49.443Z,102681.22
2022-12-18T10:59:36.228Z,102678.59
2022-12-18T11:02:27.994Z,102676.72
2022-12-18T11:04:57.845Z,102671.78
2022-12-18T11:07:52.151Z,102660.91
2022-12-18T11:10:32.183Z,102650.72
2022-12-18T11:13:20.187Z,102651.47
2022-12-18T11:15:52.160Z,102643.25
2022-12-18T11:18:27.808Z,102654.56
2022-12-18T11:21:00.153Z,102644.94
2022-12-18T11:23:32.076Z,102629.91
2022-12-18T11:26:06.070Z,102638.81
2022-12-18T11:28:43.435Z,102644.56
2022-12-18T11:31:33.999Z,102637.91
2022-12-18T11:34:28.824Z,102636.81
2022-12-18T11:37:03.133Z,102631.72
2022-12-18T11:39:39.768Z,102638.25
2022-12-18T11:42:18.464Z,102627.69
2022-12-18T11:44:55.177Z,102618.66
2022-12-18T11:47:33.245Z,102612.59
2022-12-18T11:50:05.229Z,102620.34
2022-12-18T11:52:40.984Z,102609.00
2022-12-18T11:55:18.657Z,102613.66
2022-12-18T11:57:58.632Z,102600.44
2022-12-18T12:03:58.419Z,102577.69
2022-12-18T12:06:36.611Z,102562.19
2022-12-18T12:09:15.416Z,102564.13
2022-12-18T12:12:01.141Z,102556.34
2022-12-18T12:14:51.293Z,102552.22
2022-12-18T12:17:34.933Z,102559.63
2022-12-18T12:20:14.878Z,102553.22
2022-12-18T12:22:52.453Z,102553.69
2022-12-18T12:25:34.267Z,102543.53
2022-12-18T12:28:21.588Z,102544.66
2022-12-18T12:31:07.110Z,102533.44
2022-12-18T12:33:49.207Z,102528.81
2022-12-18T12:36:31.913Z,102531.09
2022-12-18T12:39:08.561Z,102523.69
2022-12-18T12:41:59.742Z,102512.28
2022-12-18T12:44:36.199Z,102513.81
2022-12-18T12:47:17.171Z,102518.41
2022-12-18T12:49:48.787Z,102515.66
2022-12-18T12:52:33.262Z,102504.53
2022-12-18T12:55:14.580Z,102507.13
2022-12-18T12:57:53.267Z,102511.78
2022-12-18T13:00:23.288Z,102509.59
2022-12-18T13:03:02.465Z,102508.66
2022-12-18T13:05:45.404Z,102509.00
2022-12-18T13:08:27.655Z,102502.31
2022-12-18T13:11:15.663Z,102500.53
2022-12-18T13:13:54.445Z,102495.63
2022-12-18T13:16:28.300Z,102505.69
2022-12-18T13:19:00.882Z,102503.56
2022-12-18T13:21:33.753Z,102499.69
2022-12-18T13:24:28.256Z,102498.63
2022-12-18T13:26:57.560Z,102496.66
2022-12-18T13:29:46.626Z,102484.41
2022-12-18T13:32:25.251Z,102476.03
2022-12-18T13:35:41.283Z,102467.31
2022-12-18T13:38:25.683Z,102466.78
2022-12-18T13:43:49.360Z,102446.47
2022-12-18T13:46:26.209Z,102440.22
2022-12-18T13:49:00.367Z,102418.28
2022-12-18T13:51:38.607Z,102419.84
2022-12-18T13:54:24.318Z,102415.91
2022-12-18T13:56:54.913Z,102414.84
2022-12-18T13:59:25.682Z,102412.38
2022-12-18T14:02:00.099Z,102413.97
2022-12-18T14:04:33.912Z,102406.75
2022-12-18T14:07:08.298Z,102403.44
2022-12-18T14:09:40.602Z,102404.47
2022-12-18T14:12:38.014Z,102405.22
2022-12-18T14:15:19.436Z,102418.94
2022-12-18T14:17:53.095Z,102401.31
2022-12-18T14:20:23.059Z,102391.22
2022-12-18T14:22:52.901Z,102396.16
2022-12-18T14:28:28.227Z,102384.88
2022-12-18T14:30:58.812Z,102387.66
2022-12-18T14:33:30.580Z,102387.66
2022-12-18T14:36:02.826Z,102379.72
2022-12-18T14:38:35.531Z,102371.94
2022-12-18T14:41:07.998Z,102369.31
2022-12-18T14:43:39.924Z,102365.53
2022-12-18T14:46:29.646Z,102350.81
2022-12-18T14:49:01.167Z,102354.00
2022-12-18T14:51:33.817Z,102340.16
2022-12-18T14:54:08.956Z,102337.53
2022-12-18T14:56:45.828Z,102346.31
2022-12-18T14:59:24.701Z,102347.06
2022-12-18T15:02:04.294Z,102343.28
2022-12-18T15:04:44.225Z,102336.34
2022-12-18T15:07:19.609Z,102334.81
2022-12-18T15:10:11.254Z,102339.91
2022-12-18T15:12:45.441Z,102346.09
2022-12-18T15:15:53.175Z,102335.50
2022-12-18T15:18:28.178Z,102335.81
2022-12-18T15:21:00.549Z,102334.09
2022-12-18T15:23:37.108Z,102332.91
2022-12-18T15:26:10.289Z,102335.47
2022-12-18T15:28:41.923Z,102339.13
2022-12-18T15:34:43.005Z,102325.88
2022-12-18T15:37:12.302Z,102333.09
2022-12-18T15:39:41.307Z,102326.63
2022-12-18T15:42:29.621Z,102319.56
2022-12-18T15:45:00.358Z,102306.53
2022-12-18T15:47:29.399Z,102310.97
2022-12-18T15:49:59.993Z,102317.94
2022-12-18T15:52:29.514Z,102307.38
2022-12-18T15:55:15.937Z,102299.56
2022-12-18T15:57:46.832Z,102293.09
2022-12-18T16:00:16.867Z,102283.44
2022-12-18T16:02:47.080Z,102297.41
2022-12-18T16:05:20.065Z,102269.47
2022-12-18T16:07:49.415Z,102265.19
2022-12-18T16:10:18.794Z,102268.69
2022-12-18T16:12:48.002Z,102271.19
2022-12-18T16:15:24.229Z,102257.28
2022-12-18T16:17:56.031Z,102267.00
2022-12-18T16:20:26.790Z,102257.09
2022-12-18T16:22:56.206Z,102237.16
2022-12-18T16:25:27.665Z,102229.06
2022-12-18T16:27:58.993Z,102256.25
2022-12-18T16:30:43.044Z,102240.72
2022-12-18T16:33:13.325Z,102241.59
2022-12-18T16:35:43.907Z,102233.38
2022-12-18T16:38:13.327Z,102229.06
2022-12-18T16:41:03.274Z,102221.16
2022-12-18T16:43:34.015Z,102208.25
2022-12-18T16:46:06.467Z,102221.28
2022-12-18T16:48:37.083Z,102223.91
2022-12-18T16:51:10.538Z,102218.69
2022-12-18T16:53:39.882Z,102215.16
2022-12-18T16:56:12.146Z,102215.91
2022-12-18T16:58:40.729Z,102216.88
2022-12-18T17:01:14.395Z,102222.06
2022-12-18T17:03:44.679Z,102212.63
2022-12-18T17:06:16.853Z,102203.91
2022-12-18T17:08:47.636Z,102216.84
2022-12-18T17:11:18.628Z,102202.84
2022-12-18T17:13:47.242Z,102217.81
2022-12-18T17:16:17.448Z,102211.59
2022-12-18T17:18:47.406Z,102217.78
2022-12-18T17:21:18.582Z,102215.31
2022-12-18T17:23:51.031Z,102217.78
2022-12-18T17:29:07.258Z,102214.22
2022-12-18T17:31:37.341Z,102209.81
2022-12-18T17:34:07.602Z,102207.25
2022-12-18T17:36:41.785Z,102206.47
2022-12-18T17:39:17.998Z,102209.13
2022-12-18T17:41:46.729Z,102196.69
2022-12-18T17:44:17.110Z,102209.13
2022-12-18T17:46:49.452Z,102199.38
2022-12-18T17:49:21.465Z,102196.00
2022-12-18T17:51:53.861Z,102196.69
2022-12-18T17:54:22.912Z,102193.34
2022-12-18T17:56:51.712Z,102205.53
2022-12-18T17:59:20.164Z,102201.13
2022-12-18T18:01:54.958Z,102198.59
2022-12-18T18:04:26.683Z,102191.56
2022-12-18T18:06:59.931Z,102188.03
2022-12-18T18:09:30.690Z,102183.66
2022-12-18T18:12:16.649Z,102191.59
2022-12-18T18:14:48.421Z,102195.94
2022-12-18T18:17:22.680Z,102188.94
2022-12-18T18:19:56.704Z,102187.19
2022-12-18T18:22:27.087Z,102185.53
2022-12-18T18:25:01.610Z,102197.72
2022-12-18T18:27:38.415Z,102183.66
2022-12-18T18:30:09.427Z,102178.31
2022-12-18T18:38:25.838Z,102174.88
2022-12-18T18:41:01.624Z,102184.47
2022-12-18T18:43:31.219Z,102190.63
2022-12-18T18:46:02.418Z,102175.81
2022-12-18T18:48:35.662Z,102169.59
2022-12-18T18:51:09.564Z,102158.13
2022-12-18T18:53:44.365Z,102153.81
2022-12-18T18:59:06.707Z,102172.19
2022-12-18T19:01:35.649Z,102158.25
2022-12-18T19:04:04.735Z,102162.59
2022-12-18T19:06:33.845Z,102152.94
2022-12-18T19:09:06.739Z,102155.53
2022-12-18T19:11:54.981Z,102158.19
2022-12-18T19:14:26.232Z,102153.75
2022-12-18T19:16:56.777Z,102152.00
2022-12-18T19:19:27.118Z,102145.00
2022-12-18T19:21:56.560Z,102136.22
2022-12-18T19:24:26.912Z,102139.75
2022-12-18T19:26:55.500Z,102138.84
2022-12-18T19:29:27.207Z,102146.72
2022-12-18T19:31:57.682Z,102152.84
2022-12-18T19:34:27.979Z,102154.69
2022-12-18T19:36:59.701Z,102150.25
2022-12-18T19:39:39.028Z,102155.56
2022-12-18T19:42:11.955Z,102153.81
2022-12-18T19:44:44.620Z,102151.19
2022-12-18T19:47:13.601Z,102159.94
2022-12-18T19:50:12.168Z,102154.75
2022-12-18T19:52:41.191Z,102156.47
2022-12-18T19:55:12.442Z,102160.88
2022-12-18T19:57:41.420Z,102162.63
2022-12-18T20:00:18.869Z,102160.88
2022-12-18T20:03:21.634Z,102147.63
2022-12-18T20:05:58.097Z,102154.63
2022-12-18T20:08:27.156Z,102149.41
2022-12-18T20:11:08.124Z,102149.28
2022-12-18T20:13:47.392Z,102147.50
2022-12-18T20:16:21.003Z,102158.06
2022-12-18T20:18:54.838Z,102148.50
2022-12-18T20:21:56.237Z,102159.09
2022-12-18T20:24:28.377Z,102159.09
2022-12-18T20:27:01.788Z,102163.28
2022-12-18T20:29:34.381Z,102153.75
2022-12-18T20:32:06.042Z,102160.69
2022-12-18T20:34:36.098Z,102151.84
2022-12-18T20:37:08.276Z,102153.63
2022-12-18T20:39:53.648Z,102148.41
2022-12-18T20:42:38.625Z,102151.06
2022-12-18T20:45:09.746Z,102142.28
2022-12-18T20:47:39.832Z,102140.50
2022-12-18T20:50:10.297Z,102146.66
2022-12-18T20:52:41.254Z,102138.72
2022-12-18T20:55:14.333Z,102121.13
2022-12-18T20:57:55.312Z,102128.13
2022-12-18T21:00:25.844Z,102127.31
2022-12-18T21:02:57.151Z,102119.47
2022-12-18T21:05:31.224Z,102116.78
2022-12-18T21:08:05.499Z,102124.72
2022-12-18T21:10:34.153Z,102110.50
2022-12-18T21:15:58.179Z,102099.16
2022-12-18T21:18:27.298Z,102095.59
2022-12-18T21:20:57.972Z,102106.28
2022-12-18T21:23:27.155Z,102101.78
2022-12-18T21:26:16.769Z,102105.22
2022-12-18T21:28:47.494Z,102103.56
2022-12-18T21:31:17.435Z,102105.34
2022-12-18T21:33:46.917Z,102087.72
2022-12-18T21:36:17.170Z,102080.72
2022-12-18T21:38:46.340Z,102077.19
2022-12-18T21:41:41.861Z,102061.38
2022-12-18T21:44:13.882Z,102067.50
2022-12-18T21:46:48.843Z,102063.91
2022-12-18T21:49:22.470Z,102051.66
2022-12-18T21:51:53.422Z,102057.88
2022-12-18T21:54:23.331Z,102055.22
2022-12-18T21:56:54.441Z,102055.16
2022-12-18T21:59:27.148Z,102060.50
2022-12-18T22:02:00.362Z,102060.44
2022-12-18T22:04:30.758Z,102061.34
2022-12-18T22:06:59.826Z,102030.53
2022-12-18T22:09:28.976Z,102050.78
2022-12-18T22:11:58.785Z,102052.47
2022-12-18T22:14:29.339Z,102035.00
2022-12-18T22:16:58.210Z,102045.53
2022-12-18T22:19:27.222Z,102026.19
2022-12-18T22:21:56.745Z,102031.44
2022-12-18T22:24:30.110Z,102022.63
2022-12-18T22:27:01.739Z,102017.31
2022-12-18T22:29:50.145Z,102003.28
2022-12-18T22:32:30.897Z,101985.69
2022-12-18T22:35:06.186Z,102004.13
2022-12-18T22:37:36.067Z,101978.66
2022-12-18T22:40:08.556Z,101983.06
2022-12-18T22:42:37.558Z,101972.47
2022-12-18T22:45:09.450Z,101951.41
2022-12-18T22:47:38.388Z,101951.41
2022-12-18T22:50:09.546Z,101939.06
2022-12-18T22:52:39.714Z,101945.22
2022-12-18T22:55:11.018Z,101947.88
2022-12-18T22:57:44.392Z,101952.25
2022-12-18T23:00:24.381Z,101966.34
2022-12-18T23:03:00.977Z,101931.16
2022-12-18T23:05:31.786Z,101935.56
2022-12-18T23:08:00.943Z,101911.78
2022-12-18T23:10:29.834Z,101924.97
2022-12-18T23:12:58.926Z,101912.66
2022-12-18T23:15:30.277Z,101915.25
2022-12-18T23:18:00.191Z,101912.53
2022-12-18T23:20:29.596Z,101917.94
2022-12-18T23:22:58.268Z,101910.91
2022-12-18T23:25:26.692Z,101907.34
2022-12-18T23:27:56.939Z,101890.66
2022-12-18T23:30:27.460Z,101905.59
2022-12-18T23:33:01.239Z,101921.47
2022-12-18T23:35:31.320Z,101910.00
2022-12-18T23:38:02.258Z,101901.25
2022-12-18T23:40:32.722Z,101884.44
2022-12-18T23:43:02.286Z,101882.63
2022-12-18T23:45:31.247Z,101873.84
2022-12-18T23:48:03.126Z,101896.81
2022-12-18T23:50:32.256Z,101885.34
2022-12-18T23:53:05.156Z,101891.56
2022-12-18T23:55:38.932Z,101901.09
2022-12-18T23:58:08.654Z,101915.97
